• Join FlightAware (Why Join?)
  • Login
  • US Flag 
06:52AM EDT


 

Airport Tracker/Info


-or-


 

Live Flight TrackerFlight Track Log ✈ JBU606 ✈ 28-Dec-2013 ✈ KLGB - KSEA

Flight Track Log - Related Links

Times and Time Zones

All times are in EST time to prevent confusion due to time zone crossing. See the JBU606 flight status page for this flight to view local times or setup timezone preferences in your user account.

Time Position Orientation Groundspeed Altitude Reporting Facility
EST Latitude Longitude Course Direction KTS MPH feet Rate Location/Type
10:39AM 33.8296 -118.1656 135° Southeast 175 201 800  Level FlightAware ADS-B
10:40AM 33.8524 -118.2188 297° West 226 260 2,300 2,400 Climbing FlightAware ADS-B
10:41AM 33.8621 -118.2714 283° West 218 251 4,800 3,420 Climbing FlightAware ADS-B
10:41AM 33.8682 -118.3066 282° West 223 257 6,300 3,060 Climbing FlightAware ADS-B
10:42AM 33.8736 -118.3398 281° West 229 264 7,700 2,340 Climbing FlightAware ADS-B
10:42AM 33.8805 -118.3875 280° West 270 311 8,700 1,140 Climbing FlightAware ADS-B
10:43AM 33.8870 -118.4304 280° West 275 316 8,900 180 Climbing FlightAware ADS-B
10:43AM 33.8907 -118.4554 280° West 275 316 8,900  Level FlightAware ADS-B
10:44AM 33.8952 -118.4858 280° West 277 319 8,900  Level FlightAware ADS-B
10:44AM 33.9022 -118.5327 280° West 278 320 8,900  Level FlightAware ADS-B
10:44AM 33.9072 -118.5665 280° West 277 319 8,900  Level FlightAware ADS-B
10:45AM 33.9160 -118.6251 280° West 276 318 8,900  Level FlightAware ADS-B
10:45AM 33.9245 -118.6510 292° West 275 316 8,900  Level FlightAware ADS-B
10:46AM 33.9469 -118.6708 324° Northwest 274 315 8,900  Level FlightAware ADS-B
10:46AM 33.9721 -118.6857 334° Northwest 273 314 8,900  Level FlightAware ADS-B
10:47AM 34.0350 -118.6803 North 280 322 8,900  Level FlightAware ADS-B
10:47AM 34.0562 -118.6728 16° North 280 322 8,900  Level FlightAware ADS-B
10:48AM 34.0817 -118.6638 16° North 279 321 8,900 660 Level FlightAware ADS-B
10:48AM 34.1158 -118.6519 16° North 283 326 9,400 3,120 Climbing FlightAware ADS-B
10:48AM 34.1350 -118.6453 16° North 291 335 11,300 2,760 Climbing FlightAware ADS-B
10:49AM 34.1969 -118.6348 North 291 335 12,300 1,140 Climbing FlightAware ADS-B
10:50AM 34.2496 -118.6545 343° North 331 381 13,000 1,380 Climbing FlightAware ADS-B
10:50AM 34.3136 -118.6788 343° North 364 419 14,200 2,400 Climbing FlightAware ADS-B
10:51AM 34.4066 -118.7130 343° North 358 412 17,100 2,460 Climbing FlightAware ADS-B
10:52AM 34.4947 -118.7457 343° North 373 429 18,800 2,160 Climbing FlightAware ADS-B
10:53AM 34.6052 -118.7867 343° North 375 432 21,300 1,980 Climbing FlightAware ADS-B
10:54AM 34.6841 -118.8160 343° North 383 441 22,600 1,860 Climbing FlightAware ADS-B
10:55AM 34.7553 -118.8427 343° North 382 440 24,000 2,400 Climbing FlightAware ADS-B
10:56AM 34.8175 -118.8661 343° North 362 417 25,900 1,500 Climbing FlightAware ADS-B
10:56AM 34.9130 -118.9028 343° North 390 449 26,500 900 Climbing FlightAware ADS-B
10:57AM 34.9827 -118.9296 342° North 393 452 27,400 1,620 Climbing FlightAware ADS-B
10:58AM 35.0511 -118.9560 343° North 386 444 28,700 1,620 Climbing FlightAware ADS-B
10:58AM 35.1212 -118.9763 347° North 385 443 29,600 1,080 Climbing FlightAware ADS-B
10:59AM 35.1952 -118.9964 347° North 393 452 30,200 900 Climbing FlightAware ADS-B
11:00AM 35.2739 -119.0192 347° North 395 455 31,000 1,020 Climbing FlightAware ADS-B
11:01AM 35.3500 -119.0415 347° North 397 457 31,700 960 Climbing FlightAware ADS-B
11:01AM 35.4223 -119.0626 347° North 400 460 32,400 720 Climbing FlightAware ADS-B
11:02AM 35.5341 -119.0954 347° North 411 473 33,000 780 Climbing FlightAware ADS-B
11:03AM 35.6294 -119.1233 347° North 415 478 33,800 600 Climbing FlightAware ADS-B
11:04AM 35.6984 -119.1436 347° North 406 467 34,000 60 Climbing FlightAware ADS-B
11:05AM 35.8059 -119.1755 346° North 405 466 34,000  Level FlightAware ADS-B
11:06AM 35.9106 -119.2064 346° North 407 468 34,000  Level Oakland Center
11:07AM 36.0181 -119.2400 346° North 402 463 34,000  Level Oakland Center
11:08AM 36.1228 -119.2697 347° North 394 453 34,000  Level Oakland Center
11:09AM 36.2278 -119.3014 346° North 390 449 34,000 -60 Level Oakland Center
11:10AM 36.3325 -119.3336 346° North 388 447 33,900 -60 Descending Oakland Center
11:11AM 36.4578 -119.3714 346° North 388 447 33,900  Level Oakland Center
11:12AM 36.5622 -119.4028 346° North 387 445 34,000  Climbing Oakland Center
11:13AM 36.6681 -119.4344 347° North 392 451 34,000  Level Oakland Center
11:14AM 36.7744 -119.4656 347° North 393 452 34,000  Level Oakland Center
11:15AM 36.8786 -119.4989 346° North 390 449 34,000  Level Oakland Center
11:16AM 36.9856 -119.5306 347° North 393 452 34,000  Level Oakland Center
11:17AM 37.0906 -119.5622 346° North 390 449 34,000  Level Oakland Center
11:18AM 37.1939 -119.5944 346° North 386 444 34,000 -60 Level Oakland Center
11:19AM 37.2961 -119.6253 347° North 379 436 33,900  Descending Oakland Center
11:20AM 37.4125 -119.6625 346° North 382 440 34,000  Climbing Oakland Center
11:21AM 37.5156 -119.6947 346° North 380 437 34,000  Level Oakland Center
11:22AM 37.6186 -119.7250 347° North 380 437 34,000  Level Oakland Center
11:23AM 37.7228 -119.7583 346° North 384 442 34,000  Level Oakland Center
11:29AM 38.3354 -119.9490 346° North 368 423 34,000  Level FlightAware ADS-B (KAHC)
11:30AM 38.4221 -119.9764 346° North 373 429 34,000  Level FlightAware ADS-B (KAHC)
11:31AM 38.5158 -120.0061 346° North 377 434 34,000  Level FlightAware ADS-B (KAHC)
11:31AM 38.5922 -120.0306 346° North 376 433 34,000  Level FlightAware ADS-B (KAHC)
11:32AM 38.6595 -120.0523 346° North 376 433 34,000  Level FlightAware ADS-B (KAHC)
11:33AM 38.7126 -120.0692 346° North 376 433 34,000  Level FlightAware ADS-B (KAHC)
11:33AM 38.7915 -120.0945 346° North 368 423 34,000  Level FlightAware ADS-B (KAHC)
11:34AM 38.8558 -120.1151 346° North 374 430 34,000 60 Level FlightAware ADS-B (KAHC)
11:35AM 38.9234 -120.1367 346° North 370 426 34,100  Climbing FlightAware ADS-B (KAHC)
11:36AM 39.0156 -120.1664 346° North 368 423 34,000 -120 Descending FlightAware ADS-B (KAHC)
11:36AM 39.0667 -120.1829 346° North 366 421 34,000  Level FlightAware ADS-B (KAHC)
11:37AM 39.1328 -120.2045 346° North 364 419 34,000  Level FlightAware ADS-B (KAHC)
11:38AM 39.1979 -120.2257 346° North 364 419 34,000  Level FlightAware ADS-B (KAHC)
11:38AM 39.2512 -120.2430 346° North 364 419 34,000  Level FlightAware ADS-B (KAHC)
11:39AM 39.3156 -120.2640 346° North 364 419 34,000  Level FlightAware ADS-B (KAHC)
11:39AM 39.3680 -120.2810 346° North 365 420 34,000  Level FlightAware ADS-B (KAHC)
11:40AM 39.4335 -120.3024 346° North 368 423 34,000  Level FlightAware ADS-B (KAHC)
11:41AM 39.4926 -120.3217 346° North 370 426 34,000  Level FlightAware ADS-B (KAHC)
11:41AM 39.5598 -120.3438 346° North 370 426 34,000  Level FlightAware ADS-B (KAHC)
11:42AM 39.6256 -120.3654 346° North 369 425 34,000  Level FlightAware ADS-B (KAHC)
11:43AM 39.6945 -120.3881 346° North 369 425 34,000  Level FlightAware ADS-B (KAHC)
11:43AM 39.7609 -120.4100 346° North 370 426 34,000  Level FlightAware ADS-B (KAHC)
11:44AM 39.8244 -120.4310 346° North 369 425 34,000  Level FlightAware ADS-B (KAHC)
11:45AM 39.8914 -120.4532 346° North 369 425 34,000  Level FlightAware ADS-B (KAHC)
11:45AM 39.9635 -120.4772 346° North 371 427 34,000  Level FlightAware ADS-B (KAHC)
11:46AM 40.0139 -120.4939 346° North 372 428 34,000  Level FlightAware ADS-B (KAHC)
11:47AM 40.0911 -120.5195 346° North 374 430 34,000  Level FlightAware ADS-B (KAHC)
11:47AM 40.1566 -120.5414 346° North 375 432 34,000  Level FlightAware ADS-B (KAHC)
11:48AM 40.2174 -120.5618 346° North 375 432 34,000  Level FlightAware ADS-B (KAHC)
11:48AM 40.2850 -120.5846 346° North 375 432 34,000  Level FlightAware ADS-B (KAHC)
11:49AM 40.3520 -120.6071 346° North 374 430 34,000  Level FlightAware ADS-B (KAHC)
11:50AM 40.4183 -120.6294 346° North 374 430 34,000  Level FlightAware ADS-B (KAHC)
11:50AM 40.4718 -120.6473 346° North 373 429 34,000  Level FlightAware ADS-B (KAHC)
11:51AM 40.5359 -120.6688 346° North 373 429 34,000  Level FlightAware ADS-B (KAHC)
11:52AM 40.6067 -120.6927 346° North 373 429 34,000  Level FlightAware ADS-B (KAHC)
11:52AM 40.6726 -120.7150 346° North 373 429 34,000  Level FlightAware ADS-B (KAHC)
11:53AM 40.7248 -120.7329 345° North 372 428 34,000  Level FlightAware ADS-B (KAHC)
11:53AM 40.7763 -120.7503 346° North 371 427 34,000  Level FlightAware ADS-B (KAHC)
11:54AM 40.8499 -120.7754 346° North 370 426 34,000  Level FlightAware ADS-B (KAHC)
11:55AM 40.9179 -120.7987 346° North 368 423 34,000  Level FlightAware ADS-B (KAHC)
11:55AM 40.9718 -120.8170 346° North 366 421 34,000  Level FlightAware ADS-B (KAHC)
11:56AM 41.0117 -120.8314 346° North 367 422 34,000  Level Oakland Center
11:57AM 41.1094 -120.8653 345° North 363 418 34,000  Level Seattle Center
11:58AM 41.2067 -120.8978 346° North 364 419 34,000  Level Seattle Center
11:59AM 41.3039 -120.9314 345° North 362 417 34,000  Level Seattle Center
12:00PM 41.4006 -120.9650 345° North 359 413 34,000  Level Seattle Center
12:01PM 41.4958 -120.9989 345° North 358 412 34,000  Level Seattle Center
12:02PM 41.5914 -121.0325 345° North 357 411 34,000  Level Seattle Center
12:03PM 41.6847 -121.0664 345° North 354 407 34,000  Level Seattle Center
12:04PM 41.7792 -121.0981 346° North 351 404 34,000  Level Seattle Center
12:05PM 41.8722 -121.1311 345° North 349 402 34,000  Level Seattle Center
12:06PM 41.9639 -121.1639 345° North 345 397 34,000  Level Seattle Center
12:07PM 42.0567 -121.1958 346° North 347 399 34,000  Level Seattle Center
12:08PM 42.1497 -121.2294 345° North 350 403 34,000  Level Seattle Center
12:09PM 42.2622 -121.2694 345° North 358 412 34,000  Level Seattle Center
12:10PM 42.3550 -121.3022 345° North 351 404 34,000  Level Seattle Center
12:11PM 42.4486 -121.3369 345° North 353 406 34,000 -180 Level Seattle Center
12:12PM 42.5419 -121.3706 345° North 349 402 33,700 -600 Descending Seattle Center
12:13PM 42.6356 -121.4028 346° North 352 405 32,800 -900 Descending Seattle Center
12:14PM 42.7300 -121.4383 345° North 358 412 32,000 -420 Descending Seattle Center
12:15PM 42.8261 -121.4747 344° North 362 417 32,000  Level Seattle Center
12:16PM 42.9203 -121.5075 346° North 353 406 32,000  Level Seattle Center
12:17PM 43.0161 -121.5422 345° North 357 411 32,000  Level Seattle Center
12:18PM 43.1119 -121.5803 344° North 359 413 32,000  Level Seattle Center
12:19PM 43.2072 -121.6150 345° North 356 410 32,000  Level Seattle Center
12:20PM 43.3028 -121.6492 345° North 358 412 32,000  Level Seattle Center
12:21PM 43.4186 -121.6928 345° North 360 414 32,000  Level Seattle Center
12:22PM 43.5161 -121.7278 345° North 363 418 32,000  Level Seattle Center
12:23PM 43.6119 -121.7650 344° North 361 415 32,000  Level Seattle Center
12:25PM 43.8042 -121.8369 345° North 359 413 32,000  Level Seattle Center
12:26PM 43.8967 -121.8675 347° North 365 420 32,000  Level Seattle Center
12:27PM 43.9967 -121.9031 346° North 366 421 32,000  Level Seattle Center
12:28PM 44.0936 -121.9392 345° North 364 419 32,000  Level Seattle Center
12:29PM 44.1886 -121.9772 344° North 359 413 32,000  Level Seattle Center
12:30PM 44.3033 -122.0219 344° North 357 411 32,000  Level Seattle Center
12:36PM 44.8484 -122.2340 344° North 361 415 32,000  Level FlightAware ADS-B
12:36PM 44.9003 -122.2540 345° North 361 415 32,000  Level FlightAware ADS-B
12:37PM 44.9498 -122.2740 344° North 362 417 32,000  Level FlightAware ADS-B
12:38PM 45.0251 -122.3030 345° North 362 417 32,000  Level FlightAware ADS-B
12:38PM 45.0870 -122.3280 344° North 362 417 32,000  Level FlightAware ADS-B
12:39PM 45.1361 -122.3470 345° North 362 417 32,000  Level FlightAware ADS-B
12:40PM 45.1986 -122.3720 344° North 362 417 32,000  Level FlightAware ADS-B
12:40PM 45.2491 -122.3920 344° North 361 415 32,000  Level FlightAware ADS-B
12:41PM 45.3083 -122.4150 345° North 360 414 32,000  Level FlightAware ADS-B
12:41PM 45.3627 -122.4370 344° North 359 413 32,000  Level FlightAware ADS-B
12:42PM 45.4118 -122.4560 345° North 359 413 32,000  Level FlightAware ADS-B
12:42PM 45.4608 -122.4760 344° North 358 412 32,000  Level FlightAware ADS-B
12:43PM 45.5245 -122.5010 345° North 359 413 32,000  Level FlightAware ADS-B
12:43PM 45.5730 -122.5210 344° North 360 414 32,000  Level FlightAware ADS-B
12:44PM 45.6458 -122.5500 344° North 359 413 32,000  Level FlightAware ADS-B
12:45PM 45.6965 -122.5710 344° North 358 412 32,000  Level FlightAware ADS-B
12:45PM 45.7460 -122.5900 345° North 359 413 32,000  Level FlightAware ADS-B
12:46PM 45.7968 -122.6040 349° North 360 414 32,000  Level FlightAware ADS-B
12:46PM 45.8477 -122.6160 351° North 361 415 32,000  Level FlightAware ADS-B
12:47PM 45.8974 -122.6280 350° North 360 414 32,000  Level FlightAware ADS-B
12:47PM 45.9468 -122.6400 350° North 361 415 32,000  Level FlightAware ADS-B
12:48PM 45.9963 -122.6530 350° North 361 415 32,000  Level FlightAware ADS-B
12:48PM 46.0465 -122.6650 351° North 362 417 32,000  Level FlightAware ADS-B
12:49PM 46.0962 -122.6780 350° North 363 418 32,000 -480 Level FlightAware ADS-B
12:49PM 46.1379 -122.6870 351° North 356 410 31,600 -1,020 Descending FlightAware ADS-B
12:50PM 46.1871 -122.6960 353° North 359 413 31,100 -1,020 Descending FlightAware ADS-B
12:50PM 46.2372 -122.7060 352° North 362 417 30,600 -1,020 Descending FlightAware ADS-B
12:51PM 46.2870 -122.7150 353° North 361 415 30,100 -1,260 Descending FlightAware ADS-B
12:51PM 46.3166 -122.7210 352° North 361 415 29,600 -2,100 Descending FlightAware ADS-B
12:51PM 46.3662 -122.7240 358° North 358 412 28,500 -2,280 Descending FlightAware ADS-B
12:52PM 46.4163 -122.7260 358° North 358 412 27,300 -2,400 Descending FlightAware ADS-B
12:53PM 46.4659 -122.7270 359° North 357 411 26,100 -2,520 Descending FlightAware ADS-B
12:53PM 46.5198 -122.7290 359° North 358 412 24,700 -2,520 Descending FlightAware ADS-B
12:54PM 46.5699 -122.7310 358° North 359 413 23,500 -2,460 Descending FlightAware ADS-B
12:54PM 46.6206 -122.7330 358° North 359 413 22,200 -2,520 Descending FlightAware ADS-B
12:55PM 46.6705 -122.7350 358° North 349 402 21,000 -2,280 Descending FlightAware ADS-B
12:55PM 46.7173 -122.7360 359° North 330 380 19,900 -2,100 Descending FlightAware ADS-B
12:56PM 46.7583 -122.7380 358° North 325 374 19,000 -1,800 Descending FlightAware ADS-B
12:56PM 46.7631 -122.7380 360° North 324 373 19,000 -900 Level FlightAware ADS-B
12:56PM 46.7698 -122.7370 North 324 373 18,900 -1,500 Descending FlightAware ADS-B
12:56PM 46.7758 -122.7360 North 322 371 18,800 -720 Descending FlightAware ADS-B
12:56PM 46.7828 -122.7330 16° North 321 369 18,800 -1,140 Level FlightAware ADS-B
12:56PM 46.7907 -122.7280 23° Northeast 322 371 18,600 -1,800 Descending FlightAware ADS-B
12:56PM 46.7964 -122.7240 26° Northeast 324 373 18,500 -1,680 Descending FlightAware ADS-B
12:56PM 46.8043 -122.7160 35° Northeast 328 377 18,300 -2,040 Descending FlightAware ADS-B
12:56PM 46.8322 -122.6840 38° Northeast 330 380 17,500 -2,220 Descending FlightAware ADS-B
12:57PM 46.8591 -122.6510 40° Northeast 334 384 16,600 -2,160 Descending FlightAware ADS-B
12:57PM 46.8815 -122.6250 38° Northeast 329 379 16,000 -2,160 Descending FlightAware ADS-B
12:57PM 46.8965 -122.6085 37° Northeast 358 412 15,500 -2,040 Descending FlightAware ADS-B (EPKK / KRK)
12:58PM 46.9332 -122.5680 37° Northeast 329 379 14,600 -1,860 Descending FlightAware ADS-B
12:58PM 46.9445 -122.5590 29° Northeast 311 358 14,300 -1,440 Descending FlightAware ADS-B
12:58PM 46.9605 -122.5520 17° North 304 350 14,100 -1,320 Descending FlightAware ADS-B
12:59PM 47.0012 -122.5340 17° North 306 352 13,400 -1,320 Descending FlightAware ADS-B
12:59PM 47.0425 -122.5160 17° North 305 351 12,800 -1,260 Descending FlightAware ADS-B
01:00PM 47.0727 -122.5030 16° North 304 350 12,300 -1,440 Descending FlightAware ADS-B
01:00PM 47.0841 -122.4990 13° North 303 349 12,100 -1,380 Descending FlightAware ADS-B
01:00PM 47.1213 -122.4920 North 297 342 11,500 -1,260 Descending FlightAware ADS-B
01:01PM 47.1622 -122.4850 North 291 335 10,900 -1,200 Descending FlightAware ADS-B
01:01PM 47.2015 -122.4780 North 271 312 10,300 -1,200 Descending FlightAware ADS-B
01:01PM 47.2205 -122.4750 North 267 307 10,000 -1,320 Descending FlightAware ADS-B
01:02PM 47.2400 -122.4720 North 262 302 9,600 -1,200 Descending FlightAware ADS-B
01:02PM 47.2582 -122.4690 North 262 302 9,400 -900 Descending FlightAware ADS-B
01:02PM 47.2741 -122.4670 North 257 296 9,200 -900 Descending FlightAware ADS-B
01:02PM 47.2912 -122.4640 North 245 282 9,000 -840 Descending FlightAware ADS-B
01:03PM 47.3078 -122.4620 North 232 267 8,800 -1,020 Descending FlightAware ADS-B
01:03PM 47.3236 -122.4600 North 222 255 8,500 -1,200 Descending FlightAware ADS-B
01:03PM 47.3393 -122.4570 North 218 251 8,200 -1,320 Descending FlightAware ADS-B
01:03PM 47.3510 -122.4550 North 216 249 7,900 -1,140 Descending FlightAware ADS-B
01:03PM 47.3554 -122.4550 360° North 213 245 7,900 -720 Level FlightAware ADS-B
01:04PM 47.3602 -122.4550 360° North 210 242 7,800 -1,500 Descending FlightAware ADS-B
01:04PM 47.3748 -122.4550 360° North 210 242 7,400 -1,680 Descending FlightAware ADS-B
01:04PM 47.3948 -122.4570 356° North 210 242 6,800 -1,560 Descending FlightAware ADS-B
01:04PM 47.4053 -122.4570 360° North 212 244 6,600 -900 Descending FlightAware ADS-B
01:05PM 47.4212 -122.4580 358° North 206 237 6,400 -240 Descending FlightAware ADS-B
01:05PM 47.4355 -122.4590 357° North 206 237 6,500  Climbing FlightAware ADS-B
01:05PM 47.4443 -122.4590 360° North 211 243 6,400 -300 Descending FlightAware ADS-B
01:05PM 47.4594 -122.4600 357° North 212 244 6,400  Level FlightAware ADS-B
01:06PM 47.4753 -122.4610 358° North 213 245 6,400  Level FlightAware ADS-B
01:06PM 47.4900 -122.4620 357° North 213 245 6,400 -240 Level FlightAware ADS-B
01:06PM 47.5059 -122.4630 358° North 211 243 6,300 -780 Descending FlightAware ADS-B
01:06PM 47.5213 -122.4640 357° North 212 244 6,000 -1,140 Descending FlightAware ADS-B
01:06PM 47.5278 -122.4650 354° North 213 245 5,900 -1,380 Descending FlightAware ADS-B
01:06PM 47.5308 -122.4640 13° North 212 244 5,800 -1,500 Descending FlightAware ADS-B
01:07PM 47.5360 -122.4640 360° North 211 243 5,700 -900 Descending FlightAware ADS-B
01:07PM 47.5496 -122.4630 North 211 243 5,500 -1,020 Descending FlightAware ADS-B
01:07PM 47.5643 -122.4610 North 211 243 5,200 -1,200 Descending FlightAware ADS-B
01:07PM 47.5788 -122.4590 North 211 243 4,900 -1,440 Descending FlightAware ADS-B
01:07PM 47.5903 -122.4580 North 212 244 4,600 -1,080 Descending FlightAware ADS-B
01:08PM 47.6021 -122.4570 North 209 241 4,500 -240 Descending FlightAware ADS-B
01:08PM 47.6173 -122.4560 North 214 246 4,500 -180 Level FlightAware ADS-B
01:08PM 47.6355 -122.4550 North 217 250 4,400 -240 Descending FlightAware ADS-B
01:08PM 47.6468 -122.4540 North 216 249 4,400  Level FlightAware ADS-B
01:09PM 47.6646 -122.4530 North 214 246 4,400  Level FlightAware ADS-B
01:09PM 47.6745 -122.4520 North 215 247 4,400  Level FlightAware ADS-B
01:09PM 47.6786 -122.4500 18° North 214 246 4,400  Level FlightAware ADS-B
01:09PM 47.6829 -122.4460 32° Northeast 210 242 4,400  Level FlightAware ADS-B
01:09PM 47.6853 -122.4430 40° Northeast 208 239 4,400  Level FlightAware ADS-B
01:09PM 47.6875 -122.4400 43° Northeast 205 236 4,400 360 Level FlightAware ADS-B
01:09PM 47.6924 -122.4240 66° East 194 223 4,500 300 Climbing FlightAware ADS-B
01:09PM 47.6936 -122.4170 76° East 188 216 4,500  Level FlightAware ADS-B
01:10PM 47.6962 -122.3980 79° East 184 212 4,500 -240 Level FlightAware ADS-B
01:10PM 47.6987 -122.3780 79° East 180 207 4,400 -240 Descending FlightAware ADS-B
01:10PM 47.7010 -122.3590 80° East 182 209 4,400  Level FlightAware ADS-B
01:10PM 47.7011 -122.3540 88° East 184 212 4,400  Level FlightAware ADS-B
01:10PM 47.7006 -122.3490 98° East 187 215 4,400  Level FlightAware ADS-B
01:11PM 47.6984 -122.3410 112° Southeast 189 217 4,400  Level FlightAware ADS-B
01:11PM 47.6954 -122.3350 127° Southeast 190 219 4,400  Level FlightAware ADS-B
01:11PM 47.6927 -122.3320 143° Southeast 189 217 4,400  Level FlightAware ADS-B
01:11PM 47.6900 -122.3290 143° Southeast 189 217 4,400 -420 Level FlightAware ADS-B
01:11PM 47.6814 -122.3230 155° Southeast 185 213 4,300 -720 Descending FlightAware ADS-B
01:11PM 47.6760 -122.3200 159° South 181 208 4,200 -1,140 Descending FlightAware ADS-B
01:11PM 47.6728 -122.3190 168° South 180 207 4,100 -1,500 Descending FlightAware ADS-B
01:11PM 47.6701 -122.3180 166° South 181 208 4,000 -1,740 Descending FlightAware ADS-B
01:11PM 47.6668 -122.3170 168° South 182 209 3,900 -1,140 Descending FlightAware ADS-B
01:11PM 47.6607 -122.3170 180° South 183 211 3,800 -1,080 Descending FlightAware ADS-B
01:12PM 47.6520 -122.3170 180° South 183 211 3,600 -900 Descending FlightAware ADS-B
01:12PM 47.6435 -122.3160 175° South 184 212 3,500 -960 Descending FlightAware ADS-B
01:12PM 47.6312 -122.3160 180° South 183 211 3,200 -1,200 Descending FlightAware ADS-B
01:12PM 47.6217 -122.3160 180° South 181 208 3,000 -960 Descending FlightAware ADS-B
01:12PM 47.6091 -122.3170 183° South 178 205 2,800 -1,020 Descending FlightAware ADS-B
01:13PM 47.5964 -122.3170 180° South 178 205 2,500 -1,080 Descending FlightAware ADS-B
01:13PM 47.5902 -122.3170 180° South 177 204 2,400 -1,080 Descending FlightAware ADS-B
01:13PM 47.5776 -122.3170 180° South 175 201 2,100 -1,020 Descending FlightAware ADS-B
01:13PM 47.5658 -122.3170 180° South 172 198 1,900 -840 Descending FlightAware ADS-B
01:13PM 47.5593 -122.3170 180° South 173 199 1,800 -1,140 Descending FlightAware ADS-B
01:14PM 47.5527 -122.3170 180° South 171 197 1,600 -1,080 Descending FlightAware ADS-B
01:14PM 47.5411 -122.3170 180° South 158 182 1,400 -660 Descending FlightAware ADS-B
01:14PM 47.5323 -122.3170 180° South 144 166 1,300 -660 Descending FlightAware ADS-B
01:14PM 47.5219 -122.3170 180° South 138 159 1,100 -840 Descending FlightAware ADS-B
01:14PM 47.5140 -122.3170 180° South 135 155 900 -840 Descending FlightAware ADS-B
01:15PM 47.5042 -122.3180 184° South 135 155 700 -900 Descending FlightAware ADS-B
01:15PM 47.5006 -122.3180 180° South 133 153 600 -900 Descending FlightAware ADS-B
01:15PM 47.4906 -122.3180 180° South 132 152 400 -600 Descending FlightAware ADS-B
01:15PM 47.4815 -122.3180 180° South 131 151 300  Descending FlightAware ADS-B
01:16PM 47.4631 -122.3178 180° South 132 152 400  Climbing Seattle Center
01:17PM 47.4311 -122.3192 182° South 133 153 300 -120 Descending Seattle Center